Time;durP1;ratioP1;P1;durP2;ratioP2;P2;SDS_P1;SDS_P2;PMS_P1;PMS_P2;Temp;Humidity;BMP_temperature;BMP_pressure;BME280_temperature;BME280_humidity;BME280_pressure;Samples;Min_cycle;Max_cycle;Signal;HPM_P1;HPM_P2
2023/12/09 00:00:31;;;;;;;;;;;7.70;99.90;;;;;;5119572;27;19934;-73
2023/12/09 00:02:57;;;;;;;;;;;7.70;99.90;;;;;;5096430;28;20026;-73
2023/12/09 00:05:23;;;;;;;;;;;7.80;99.90;;;;;;5124945;27;19967;-73
2023/12/09 00:07:48;;;;;;;;;;;7.70;99.90;;;;;;5096701;28;19963;-73
2023/12/09 00:10:14;;;;;;;;;;;7.70;99.90;;;;;;5103498;27;19968;-73
2023/12/09 00:12:39;;;;;;;;;;;7.80;99.90;;;;;;5109427;27;19924;-73
2023/12/09 00:15:05;;;;;;;;;;;7.80;99.90;;;;;;5094473;27;19923;-73
2023/12/09 00:17:31;;;;;;;;;;;7.80;99.90;;;;;;5092769;28;19967;-73
2023/12/09 00:19:56;;;;;;;;;;;7.80;99.90;;;;;;5102894;28;19923;-73
2023/12/09 00:22:23;;;;;;;;;;;7.70;99.90;;;;;;5118621;27;19924;-72
2023/12/09 00:24:48;;;;;;;;;;;7.80;99.90;;;;;;5099048;27;19930;-73
2023/12/09 00:27:14;;;;;;;;;;;7.80;99.90;;;;;;5101090;28;19924;-73
2023/12/09 00:29:39;;;;;;;;;;;7.80;99.90;;;;;;5097410;27;19927;-73
2023/12/09 00:32:05;;;;;;;;;;;7.80;99.90;;;;;;5101682;27;19955;-73
2023/12/09 00:34:30;;;;;;;;;;;7.80;99.90;;;;;;5105128;27;19976;-73
2023/12/09 00:36:56;;;;;;;;;;;7.90;99.90;;;;;;5102637;28;19924;-73
2023/12/09 00:39:21;;;;;;;;;;;7.90;99.90;;;;;;5118755;27;20006;-72
2023/12/09 00:41:47;;;;;;;;;;;7.90;99.90;;;;;;5090912;28;19990;-73
2023/12/09 00:44:14;;;;;;;;;;;7.80;99.90;;;;;;5107730;27;19926;-73
2023/12/09 00:46:39;;;;;;;;;;;7.80;99.90;;;;;;5122482;27;20019;-73
2023/12/09 00:49:05;;;;;;;;;;;7.90;99.90;;;;;;5112507;27;20030;-73
2023/12/09 00:51:30;;;;;;;;;;;7.90;99.90;;;;;;5128513;27;19951;-74
2023/12/09 00:53:56;;;;;;;;;;;7.90;99.90;;;;;;5116219;27;19932;-73
2023/12/09 00:56:21;;;;;;;;;;;7.90;99.90;;;;;;5094581;28;19926;-73
2023/12/09 00:58:47;;;;;;;;;;;8.00;99.90;;;;;;5128405;27;19924;-72
2023/12/09 01:01:13;;;;;;;;;;;8.00;99.90;;;;;;5099127;27;20059;-72
2023/12/09 01:03:38;;;;;;;;;;;8.00;99.90;;;;;;5106800;28;20413;-73
2023/12/09 01:06:05;;;;;;;;;;;8.00;99.90;;;;;;5105935;28;19924;-73
2023/12/09 01:08:30;;;;;;;;;;;7.90;99.90;;;;;;5126277;27;19924;-72
2023/12/09 01:10:56;;;;;;;;;;;8.00;99.90;;;;;;5126205;27;20010;-73
2023/12/09 01:13:21;;;;;;;;;;;7.90;99.90;;;;;;5103098;28;19923;-73
2023/12/09 01:15:47;;;;;;;;;;;7.90;99.90;;;;;;5120872;27;19928;-73
2023/12/09 01:18:12;;;;;;;;;;;8.00;99.90;;;;;;5111644;27;19938;-73
2023/12/09 01:20:38;;;;;;;;;;;8.00;99.90;;;;;;5108994;27;20494;-73
2023/12/09 01:23:03;;;;;;;;;;;7.90;99.90;;;;;;5128570;27;19919;-73
2023/12/09 01:25:29;;;;;;;;;;;8.00;99.90;;;;;;5109226;27;19967;-72
2023/12/09 01:27:54;;;;;;;;;;;8.00;99.90;;;;;;5115458;27;19970;-73
2023/12/09 01:30:20;;;;;;;;;;;8.00;99.90;;;;;;5110380;27;19924;-73
2023/12/09 01:32:45;;;;;;;;;;;8.00;99.90;;;;;;5128234;27;19927;-73
2023/12/09 01:35:11;;;;;;;;;;;8.00;99.90;;;;;;5126834;27;19920;-73
2023/12/09 01:37:37;;;;;;;;;;;8.00;99.90;;;;;;5094199;28;19925;-73
2023/12/09 01:40:03;;;;;;;;;;;8.10;99.90;;;;;;5116234;27;20372;-73
2023/12/09 01:42:29;;;;;;;;;;;8.00;99.90;;;;;;5099103;27;19963;-73
2023/12/09 01:44:54;;;;;;;;;;;8.00;99.90;;;;;;5124403;27;19969;-73
2023/12/09 01:47:20;;;;;;;;;;;8.00;99.90;;;;;;5123136;27;20542;-73
2023/12/09 01:49:46;;;;;;;;;;;8.00;99.90;;;;;;5108873;28;20290;-73
2023/12/09 01:52:12;;;;;;;;;;;8.00;99.90;;;;;;5118915;27;20379;-73
2023/12/09 01:54:38;;;;;;;;;;;8.00;99.90;;;;;;5109421;28;19923;-73
2023/12/09 01:57:03;;;;;;;;;;;8.10;99.90;;;;;;5121549;28;19924;-73
2023/12/09 01:59:29;;;;;;;;;;;8.00;99.90;;;;;;5093913;28;19927;-73
2023/12/09 02:01:55;;;;;;;;;;;8.10;99.90;;;;;;5115380;28;20337;-73
2023/12/09 02:04:21;;;;;;;;;;;8.10;99.90;;;;;;5107875;28;19976;-73
2023/12/09 02:06:47;;;;;;;;;;;8.00;99.90;;;;;;5128672;28;19924;-74
2023/12/09 02:09:12;;;;;;;;;;;8.10;99.90;;;;;;5103846;28;19988;-72
2023/12/09 02:11:53;;;;;;;;;;;8.00;99.90;;;;;;5112264;28;19928;-73
2023/12/09 02:14:29;;;;;;;;;;;8.10;99.90;;;;;;5106690;28;19931;-73
2023/12/09 02:17:04;;;;;;;;;;;8.00;99.90;;;;;;5116760;28;19923;-73
2023/12/09 02:19:30;;;;;;;;;;;8.10;99.90;;;;;;5111424;28;19923;-73
2023/12/09 02:21:57;;;;;;;;;;;8.10;99.90;;;;;;5106614;28;19930;-74
2023/12/09 02:24:22;;;;;;;;;;;8.10;99.90;;;;;;5107257;28;19928;-73
2023/12/09 02:26:49;;;;;;;;;;;8.00;99.90;;;;;;5123254;28;19968;-73
2023/12/09 02:29:15;;;;;;;;;;;8.10;99.90;;;;;;5129105;28;19919;-74
2023/12/09 02:31:40;;;;;;;;;;;8.10;99.90;;;;;;5106980;28;19928;-74
2023/12/09 02:34:07;;;;;;;;;;;8.10;99.90;;;;;;5113365;28;19924;-73
2023/12/09 02:36:33;;;;;;;;;;;8.10;99.90;;;;;;5125653;28;19941;-74
2023/12/09 02:38:59;;;;;;;;;;;8.10;99.90;;;;;;5108886;28;19932;-74
2023/12/09 02:41:26;;;;;;;;;;;8.10;99.90;;;;;;5127996;27;20445;-73
2023/12/09 02:43:52;;;;;;;;;;;8.10;99.90;;;;;;5110339;27;19931;-74
2023/12/09 02:46:18;;;;;;;;;;;8.20;99.90;;;;;;5122076;27;19924;-73
2023/12/09 02:48:44;;;;;;;;;;;8.20;99.90;;;;;;5099670;28;19923;-73
2023/12/09 02:51:09;;;;;;;;;;;8.20;99.90;;;;;;5100844;27;19932;-73
2023/12/09 02:53:35;;;;;;;;;;;8.20;99.90;;;;;;5096818;28;19931;-73
2023/12/09 02:56:00;;;;;;;;;;;8.10;99.90;;;;;;5126438;27;19931;-73
2023/12/09 02:58:26;;;;;;;;;;;8.20;99.90;;;;;;5101616;28;20393;-73
2023/12/09 03:00:51;;;;;;;;;;;8.20;99.90;;;;;;5129599;27;20291;-74
2023/12/09 03:03:17;;;;;;;;;;;8.20;99.90;;;;;;5109284;28;20333;-73
2023/12/09 03:05:42;;;;;;;;;;;8.20;99.90;;;;;;5118539;27;20337;-74
2023/12/09 03:08:08;;;;;;;;;;;8.20;99.90;;;;;;5131924;27;20289;-74
2023/12/09 03:10:33;;;;;;;;;;;8.20;99.90;;;;;;5117215;27;20395;-74
2023/12/09 03:12:59;;;;;;;;;;;8.10;99.90;;;;;;5093608;28;20434;-73
2023/12/09 03:15:24;;;;;;;;;;;8.20;99.90;;;;;;5107886;27;20403;-73
2023/12/09 03:17:50;;;;;;;;;;;8.20;99.90;;;;;;5096141;27;20294;-73
2023/12/09 03:20:17;;;;;;;;;;;8.10;99.90;;;;;;5121687;27;19930;-73
2023/12/09 03:22:42;;;;;;;;;;;8.10;99.90;;;;;;5094043;28;19931;-73
2023/12/09 03:25:08;;;;;;;;;;;8.10;99.90;;;;;;5120191;27;19927;-73
2023/12/09 03:27:34;;;;;;;;;;;8.20;99.90;;;;;;5100749;27;19931;-74
2023/12/09 03:29:59;;;;;;;;;;;8.20;99.90;;;;;;5129182;27;19934;-74
2023/12/09 03:32:25;;;;;;;;;;;8.20;99.90;;;;;;5095871;28;20317;-74
2023/12/09 03:34:50;;;;;;;;;;;8.20;99.90;;;;;;5116969;27;20406;-74
2023/12/09 03:37:16;;;;;;;;;;;8.20;99.90;;;;;;5114026;27;19923;-75
2023/12/09 03:39:41;;;;;;;;;;;8.20;99.90;;;;;;5102845;27;20006;-74
2023/12/09 03:42:07;;;;;;;;;;;8.20;99.90;;;;;;5099558;27;19923;-74
2023/12/09 03:44:32;;;;;;;;;;;8.10;99.90;;;;;;5127092;27;20282;-74
2023/12/09 03:46:58;;;;;;;;;;;8.10;99.90;;;;;;5112289;27;20496;-74
2023/12/09 03:49:23;;;;;;;;;;;8.10;99.90;;;;;;5108188;27;20465;-74
2023/12/09 03:51:49;;;;;;;;;;;8.10;99.90;;;;;;5107983;27;19927;-75
2023/12/09 03:54:14;;;;;;;;;;;8.00;99.90;;;;;;5127461;27;19981;-75
2023/12/09 03:56:40;;;;;;;;;;;8.00;99.90;;;;;;5100833;27;19932;-74
2023/12/09 03:59:06;;;;;;;;;;;8.00;99.90;;;;;;5098357;27;19924;-75
2023/12/09 04:01:31;;;;;;;;;;;8.00;99.90;;;;;;5119097;27;19927;-74
2023/12/09 04:03:57;;;;;;;;;;;8.00;99.90;;;;;;5103695;28;19936;-74
2023/12/09 04:06:23;;;;;;;;;;;7.90;99.90;;;;;;5110984;28;19928;-73
2023/12/09 04:08:48;;;;;;;;;;;7.90;99.90;;;;;;5123146;27;19938;-74
2023/12/09 04:11:14;;;;;;;;;;;7.90;99.90;;;;;;5108899;28;19935;-74
2023/12/09 04:13:40;;;;;;;;;;;7.90;99.90;;;;;;5112000;27;19923;-75
2023/12/09 04:16:06;;;;;;;;;;;8.00;99.90;;;;;;5111752;27;19923;-74
2023/12/09 04:18:31;;;;;;;;;;;7.90;99.90;;;;;;5095852;27;19924;-74
2023/12/09 04:20:57;;;;;;;;;;;7.90;99.90;;;;;;5092237;28;19928;-74
2023/12/09 04:23:23;;;;;;;;;;;8.00;99.90;;;;;;5093410;28;19924;-73
2023/12/09 04:25:48;;;;;;;;;;;7.90;99.90;;;;;;5105362;27;20299;-72
2023/12/09 04:28:14;;;;;;;;;;;7.90;99.90;;;;;;5107887;28;19957;-74
2023/12/09 04:30:39;;;;;;;;;;;7.90;99.90;;;;;;5112209;27;20022;-74
2023/12/09 04:33:05;;;;;;;;;;;8.00;99.90;;;;;;5093309;28;19924;-75
2023/12/09 04:35:30;;;;;;;;;;;8.00;99.90;;;;;;5124828;27;19924;-73
2023/12/09 04:37:56;;;;;;;;;;;7.90;99.90;;;;;;5108509;28;19935;-72
2023/12/09 04:40:21;;;;;;;;;;;8.00;99.90;;;;;;5111095;27;19931;-72
2023/12/09 04:42:47;;;;;;;;;;;7.90;99.90;;;;;;5104184;27;19924;-72
2023/12/09 04:45:13;;;;;;;;;;;7.90;99.90;;;;;;5100579;27;19930;-72
2023/12/09 04:47:38;;;;;;;;;;;7.90;99.90;;;;;;5107949;27;19927;-72
2023/12/09 04:50:05;;;;;;;;;;;8.00;99.90;;;;;;5130051;27;19930;-74
2023/12/09 04:52:31;;;;;;;;;;;7.90;99.90;;;;;;5126854;27;20391;-73
2023/12/09 04:54:56;;;;;;;;;;;7.90;99.90;;;;;;5102272;28;19923;-74
2023/12/09 04:57:22;;;;;;;;;;;8.00;99.90;;;;;;5119752;27;19930;-73
2023/12/09 04:59:48;;;;;;;;;;;8.00;99.90;;;;;;5122542;27;19923;-74
2023/12/09 05:02:14;;;;;;;;;;;7.90;99.90;;;;;;5114566;27;19994;-73
2023/12/09 05:04:39;;;;;;;;;;;7.90;99.90;;;;;;5101536;27;19954;-74
2023/12/09 05:07:05;;;;;;;;;;;7.90;99.90;;;;;;5095068;28;20013;-73
2023/12/09 05:09:30;;;;;;;;;;;7.90;99.90;;;;;;5122054;27;19919;-73
2023/12/09 05:11:56;;;;;;;;;;;7.90;99.90;;;;;;5117935;27;19978;-73
2023/12/09 05:14:21;;;;;;;;;;;7.90;99.90;;;;;;5129328;27;19927;-73
2023/12/09 05:16:47;;;;;;;;;;;8.00;99.90;;;;;;5118738;27;19923;-73
2023/12/09 05:19:12;;;;;;;;;;;8.00;99.90;;;;;;5094234;28;20014;-73
2023/12/09 05:21:38;;;;;;;;;;;7.90;99.90;;;;;;5110114;28;19927;-73
2023/12/09 05:24:04;;;;;;;;;;;8.00;99.90;;;;;;5110874;27;20366;-73
2023/12/09 05:26:30;;;;;;;;;;;7.90;99.90;;;;;;5120816;27;19927;-72
2023/12/09 05:28:55;;;;;;;;;;;7.90;99.90;;;;;;5128839;27;20276;-73
2023/12/09 05:31:22;;;;;;;;;;;8.00;99.90;;;;;;5127963;27;19967;-73
2023/12/09 05:33:48;;;;;;;;;;;8.00;99.90;;;;;;5129716;27;19976;-72
2023/12/09 05:36:13;;;;;;;;;;;7.90;99.90;;;;;;5129670;27;19923;-73
2023/12/09 05:38:40;;;;;;;;;;;7.90;99.90;;;;;;5107215;28;19933;-73
2023/12/09 05:41:06;;;;;;;;;;;7.80;99.90;;;;;;5127707;27;19968;-73
2023/12/09 05:43:31;;;;;;;;;;;7.90;99.90;;;;;;5127929;27;19930;-73
2023/12/09 05:45:57;;;;;;;;;;;7.90;99.90;;;;;;5126676;27;19927;-73
2023/12/09 05:48:22;;;;;;;;;;;7.90;99.90;;;;;;5107586;28;20029;-73
2023/12/09 05:50:48;;;;;;;;;;;7.90;99.90;;;;;;5124724;27;19935;-73
2023/12/09 05:53:13;;;;;;;;;;;7.90;99.90;;;;;;5111945;28;19923;-72
2023/12/09 05:55:39;;;;;;;;;;;7.90;99.90;;;;;;5123883;28;19948;-72
2023/12/09 05:58:05;;;;;;;;;;;8.00;99.90;;;;;;5108091;28;20014;-73
2023/12/09 06:00:31;;;;;;;;;;;7.90;99.90;;;;;;5106785;28;19938;-72
2023/12/09 06:02:56;;;;;;;;;;;8.00;99.90;;;;;;5127078;28;19923;-73
2023/12/09 06:05:22;;;;;;;;;;;7.90;99.90;;;;;;5096880;28;19924;-73
2023/12/09 06:07:47;;;;;;;;;;;8.00;99.90;;;;;;5125646;28;19923;-72
2023/12/09 06:10:13;;;;;;;;;;;7.90;99.90;;;;;;5094642;28;20002;-72
2023/12/09 06:12:38;;;;;;;;;;;8.00;99.90;;;;;;5115764;28;19986;-73
2023/12/09 06:15:05;;;;;;;;;;;8.00;99.90;;;;;;5120449;28;20394;-73
2023/12/09 06:17:30;;;;;;;;;;;7.90;99.90;;;;;;5117683;27;19930;-73
2023/12/09 06:19:56;;;;;;;;;;;8.00;99.90;;;;;;5112479;27;19923;-73
2023/12/09 06:22:22;;;;;;;;;;;7.90;99.90;;;;;;5113888;27;19968;-73
2023/12/09 06:24:47;;;;;;;;;;;7.90;99.90;;;;;;5111652;28;20371;-73
2023/12/09 06:27:13;;;;;;;;;;;8.00;99.90;;;;;;5098437;28;19976;-73
2023/12/09 06:29:38;;;;;;;;;;;8.00;99.90;;;;;;5095928;28;19927;-73
2023/12/09 06:32:04;;;;;;;;;;;8.00;99.90;;;;;;5105518;28;19924;-72
2023/12/09 06:34:30;;;;;;;;;;;8.00;99.90;;;;;;5109008;28;19925;-72
2023/12/09 06:36:56;;;;;;;;;;;8.00;99.90;;;;;;5124335;27;19930;-72
2023/12/09 06:39:21;;;;;;;;;;;7.90;99.90;;;;;;5114683;27;20370;-72
2023/12/09 06:41:48;;;;;;;;;;;8.00;99.90;;;;;;5132164;27;20345;-73
2023/12/09 06:44:14;;;;;;;;;;;8.00;99.90;;;;;;5131576;27;20003;-72
2023/12/09 06:46:40;;;;;;;;;;;8.00;99.90;;;;;;5109169;28;19945;-71
2023/12/09 06:49:06;;;;;;;;;;;7.90;99.90;;;;;;5112918;27;19923;-73
2023/12/09 06:51:31;;;;;;;;;;;8.00;99.90;;;;;;5114650;27;19924;-73
2023/12/09 06:53:57;;;;;;;;;;;7.90;99.90;;;;;;5111119;28;19927;-73
2023/12/09 06:56:22;;;;;;;;;;;7.90;99.90;;;;;;5118796;27;19930;-75
2023/12/09 06:58:48;;;;;;;;;;;7.90;99.90;;;;;;5110189;28;19981;-72
2023/12/09 07:01:21;;;;;;;;;;;7.90;99.90;;;;;;5111056;28;19924;-72
2023/12/09 07:03:48;;;;;;;;;;;7.90;99.90;;;;;;5110316;27;19924;-73
2023/12/09 07:06:16;;;;;;;;;;;7.90;99.90;;;;;;5121716;27;19928;-73
2023/12/09 07:08:44;;;;;;;;;;;7.90;99.90;;;;;;5126035;27;19932;-73
2023/12/09 07:11:09;;;;;;;;;;;7.90;99.90;;;;;;5128329;27;19951;-73
2023/12/09 07:13:35;;;;;;;;;;;7.80;99.90;;;;;;5120627;27;19955;-73
2023/12/09 07:16:01;;;;;;;;;;;7.90;99.90;;;;;;5119690;27;20378;-73
2023/12/09 07:18:26;;;;;;;;;;;7.80;99.90;;;;;;5109026;28;20363;-73
2023/12/09 07:20:52;;;;;;;;;;;7.90;99.90;;;;;;5113313;27;20562;-74
2023/12/09 07:23:17;;;;;;;;;;;7.80;99.90;;;;;;5113234;27;20377;-74
2023/12/09 07:25:43;;;;;;;;;;;7.80;99.90;;;;;;5107373;28;20493;-74
2023/12/09 07:28:08;;;;;;;;;;;7.80;99.90;;;;;;5115851;27;20271;-74
2023/12/09 07:30:34;;;;;;;;;;;7.80;99.90;;;;;;5100549;27;19988;-74
2023/12/09 07:33:00;;;;;;;;;;;8.00;99.90;;;;;;5131977;27;19923;-74
2023/12/09 07:35:26;;;;;;;;;;;7.80;99.90;;;;;;5130848;27;19931;-73
2023/12/09 07:37:51;;;;;;;;;;;7.80;99.90;;;;;;5112351;27;20049;-74
2023/12/09 07:40:17;;;;;;;;;;;7.80;99.90;;;;;;5124628;27;20006;-73
2023/12/09 07:42:42;;;;;;;;;;;7.80;99.90;;;;;;5113292;27;20019;-74
2023/12/09 07:45:08;;;;;;;;;;;7.80;99.90;;;;;;5106350;27;20547;-73
2023/12/09 07:47:34;;;;;;;;;;;7.70;99.90;;;;;;5106817;27;20320;-75
2023/12/09 07:49:59;;;;;;;;;;;7.70;99.90;;;;;;5119148;27;20248;-73
2023/12/09 07:52:25;;;;;;;;;;;7.70;99.90;;;;;;5114166;27;19948;-73
2023/12/09 07:54:50;;;;;;;;;;;7.70;99.90;;;;;;5097373;28;19923;-74
2023/12/09 07:57:17;;;;;;;;;;;7.60;99.90;;;;;;5112014;27;20387;-74
2023/12/09 07:59:42;;;;;;;;;;;7.70;99.90;;;;;;5111241;28;19928;-73
2023/12/09 08:02:08;;;;;;;;;;;7.60;99.90;;;;;;5104241;28;20022;-73
2023/12/09 08:04:34;;;;;;;;;;;7.60;99.90;;;;;;5098703;28;20274;-74
2023/12/09 08:06:59;;;;;;;;;;;7.60;99.90;;;;;;5111248;27;19997;-73
2023/12/09 08:09:25;;;;;;;;;;;7.60;99.90;;;;;;5132550;27;19924;-73
2023/12/09 08:11:51;;;;;;;;;;;7.60;99.90;;;;;;5127893;27;19931;-73
2023/12/09 08:14:16;;;;;;;;;;;7.60;99.90;;;;;;5114021;27;19982;-73
2023/12/09 08:16:42;;;;;;;;;;;7.50;99.90;;;;;;5127884;27;19928;-74
2023/12/09 08:19:07;;;;;;;;;;;7.60;99.90;;;;;;5111139;28;20297;-74
2023/12/09 08:21:36;;;;;;;;;;;7.50;99.90;;;;;;5093149;27;19924;-74
2023/12/09 08:24:02;;;;;;;;;;;7.50;99.90;;;;;;5096377;28;20263;-73
2023/12/09 08:26:28;;;;;;;;;;;7.50;99.90;;;;;;5125326;27;19930;-73
2023/12/09 08:28:53;;;;;;;;;;;7.50;99.90;;;;;;5131785;27;20348;-74
2023/12/09 08:31:19;;;;;;;;;;;7.80;99.90;;;;;;5124820;27;20448;-73
2023/12/09 08:33:44;;;;;;;;;;;7.60;99.90;;;;;;5098389;28;19923;-74
2023/12/09 08:36:10;;;;;;;;;;;7.50;99.90;;;;;;5107863;27;19923;-73
2023/12/09 08:38:35;;;;;;;;;;;7.60;99.90;;;;;;5124363;27;20350;-73
2023/12/09 08:41:01;;;;;;;;;;;7.50;99.90;;;;;;5123721;27;19923;-74
2023/12/09 08:43:27;;;;;;;;;;;7.90;99.90;;;;;;5113423;27;20123;-73
2023/12/09 08:45:52;;;;;;;;;;;7.80;99.90;;;;;;5104721;28;20418;-73
2023/12/09 08:48:18;;;;;;;;;;;7.60;99.90;;;;;;5092877;28;19934;-73
2023/12/09 08:50:44;;;;;;;;;;;7.60;99.90;;;;;;5110693;28;19958;-73
2023/12/09 08:53:09;;;;;;;;;;;7.60;99.90;;;;;;5116143;27;19931;-74
2023/12/09 08:55:35;;;;;;;;;;;7.60;99.90;;;;;;5118952;27;20283;-73
2023/12/09 08:58:00;;;;;;;;;;;7.60;99.90;;;;;;5130444;27;20025;-73
2023/12/09 09:00:27;;;;;;;;;;;7.60;99.90;;;;;;5131354;27;19934;-73
2023/12/09 09:02:55;;;;;;;;;;;7.60;99.90;;;;;;5127384;27;20029;-73
2023/12/09 09:05:22;;;;;;;;;;;7.60;99.90;;;;;;5127658;27;19980;-74
2023/12/09 09:07:47;;;;;;;;;;;7.50;99.90;;;;;;5106604;27;20268;-74
2023/12/09 09:10:13;;;;;;;;;;;8.00;99.90;;;;;;5110924;27;19939;-74
2023/12/09 09:12:39;;;;;;;;;;;7.60;99.90;;;;;;5111029;27;19935;-74
2023/12/09 09:15:04;;;;;;;;;;;7.60;99.90;;;;;;5108583;28;19924;-73
2023/12/09 09:17:30;;;;;;;;;;;8.30;99.90;;;;;;5107910;28;20327;-73
2023/12/09 09:19:56;;;;;;;;;;;7.60;99.90;;;;;;5110343;27;19923;-73
2023/12/09 09:22:23;;;;;;;;;;;7.60;99.90;;;;;;5127486;27;20400;-74
2023/12/09 09:24:49;;;;;;;;;;;7.80;99.90;;;;;;5114789;27;19932;-74
2023/12/09 09:27:14;;;;;;;;;;;7.60;99.90;;;;;;5100947;28;19931;-73
2023/12/09 09:29:40;;;;;;;;;;;7.60;99.90;;;;;;5109947;28;20422;-74
2023/12/09 09:32:07;;;;;;;;;;;7.80;99.90;;;;;;5090959;28;20379;-73
2023/12/09 09:34:33;;;;;;;;;;;7.60;99.90;;;;;;5093663;27;19968;-74
2023/12/09 09:36:58;;;;;;;;;;;7.60;99.90;;;;;;5090709;28;20351;-74
2023/12/09 09:39:24;;;;;;;;;;;7.60;99.90;;;;;;5110462;28;19959;-74
2023/12/09 09:42:02;;;;;;;;;;;7.80;99.90;;;;;;5109274;27;20009;-74
2023/12/09 09:44:28;;;;;;;;;;;7.70;99.90;;;;;;5092405;28;19924;-75
2023/12/09 09:46:57;;;;;;;;;;;7.70;99.90;;;;;;5117488;27;19968;-74
2023/12/09 09:49:29;;;;;;;;;;;7.70;99.90;;;;;;5109566;28;19920;-73
2023/12/09 09:51:56;;;;;;;;;;;7.70;99.90;;;;;;5105553;28;19974;-74
2023/12/09 09:54:26;;;;;;;;;;;7.70;99.90;;;;;;5107359;28;19920;-74
2023/12/09 09:56:53;;;;;;;;;;;7.70;99.90;;;;;;5090338;28;19982;-74
2023/12/09 09:59:19;;;;;;;;;;;7.80;99.90;;;;;;5115315;28;19935;-73
2023/12/09 10:01:45;;;;;;;;;;;7.80;99.90;;;;;;5118277;28;19924;-73
2023/12/09 10:04:11;;;;;;;;;;;7.70;99.90;;;;;;5097164;28;19930;-73
2023/12/09 10:06:36;;;;;;;;;;;7.80;99.90;;;;;;5101062;28;19924;-73
2023/12/09 10:09:03;;;;;;;;;;;7.80;99.90;;;;;;5108363;28;20211;-73
2023/12/09 10:11:29;;;;;;;;;;;7.70;99.90;;;;;;5118213;28;19996;-73
2023/12/09 10:13:55;;;;;;;;;;;7.80;99.90;;;;;;5128998;28;20246;-74
2023/12/09 10:16:21;;;;;;;;;;;7.80;99.90;;;;;;5120847;28;19963;-74
2023/12/09 10:18:47;;;;;;;;;;;7.80;99.90;;;;;;5112548;28;19927;-73
2023/12/09 10:21:15;;;;;;;;;;;7.80;99.90;;;;;;5128032;28;19924;-73
2023/12/09 10:23:44;;;;;;;;;;;7.80;99.90;;;;;;5107525;28;19941;-73
2023/12/09 10:26:10;;;;;;;;;;;7.80;99.90;;;;;;5115158;28;19924;-73
2023/12/09 10:28:35;;;;;;;;;;;7.80;99.90;;;;;;5109233;28;19984;-73
2023/12/09 10:31:02;;;;;;;;;;;7.80;99.90;;;;;;5123771;28;20011;-73
2023/12/09 10:33:30;;;;;;;;;;;7.80;99.90;;;;;;5109078;28;19924;-73
2023/12/09 10:35:59;;;;;;;;;;;7.80;99.90;;;;;;5113401;28;19976;-74
2023/12/09 10:38:26;;;;;;;;;;;7.80;99.90;;;;;;5099263;28;19924;-74
2023/12/09 10:40:53;;;;;;;;;;;7.90;99.90;;;;;;5104936;28;19927;-74
2023/12/09 10:43:23;;;;;;;;;;;7.90;99.90;;;;;;5103663;28;19991;-72
2023/12/09 10:45:48;;;;;;;;;;;7.90;99.90;;;;;;5116475;28;19927;-74
2023/12/09 10:48:15;;;;;;;;;;;7.90;99.90;;;;;;5095138;28;19934;-74
2023/12/09 10:50:43;;;;;;;;;;;7.90;99.90;;;;;;5109201;28;19919;-74
2023/12/09 10:53:09;;;;;;;;;;;7.90;99.90;;;;;;5107730;28;19936;-73
2023/12/09 10:55:34;;;;;;;;;;;8.00;99.90;;;;;;5109914;28;19924;-74
2023/12/09 10:58:02;;;;;;;;;;;8.00;99.90;;;;;;5099906;28;19923;-74
2023/12/09 11:00:30;;;;;;;;;;;8.10;99.90;;;;;;5129577;28;19931;-74
2023/12/09 11:02:56;;;;;;;;;;;8.20;99.90;;;;;;5110696;28;19924;-74
2023/12/09 11:05:22;;;;;;;;;;;8.20;99.90;;;;;;5113088;27;19937;-74
2023/12/09 11:07:48;;;;;;;;;;;8.30;99.90;;;;;;5103602;28;19928;-74
2023/12/09 11:10:14;;;;;;;;;;;7.60;99.90;;;;;;5093209;28;19924;-73
2023/12/09 11:12:41;;;;;;;;;;;8.30;99.90;;;;;;5093378;28;20394;-73
2023/12/09 11:15:13;;;;;;;;;;;8.30;99.90;;;;;;5119944;27;19927;-72
2023/12/09 11:17:40;;;;;;;;;;;8.30;99.90;;;;;;5114417;27;19933;-73
2023/12/09 11:20:13;;;;;;;;;;;8.30;99.90;;;;;;5114856;27;20024;-73
2023/12/09 11:22:40;;;;;;;;;;;8.30;99.90;;;;;;5113891;27;19930;-73
2023/12/09 11:25:07;;;;;;;;;;;8.30;99.90;;;;;;5112788;27;19930;-73
2023/12/09 11:27:34;;;;;;;;;;;8.30;99.90;;;;;;5102063;28;19930;-74
2023/12/09 11:29:59;;;;;;;;;;;8.30;99.90;;;;;;5107346;28;19931;-73
2023/12/09 11:32:25;;;;;;;;;;;8.30;99.90;;;;;;5111057;28;19924;-73
2023/12/09 11:34:51;;;;;;;;;;;8.30;99.90;;;;;;5109937;28;19924;-73
2023/12/09 11:37:17;;;;;;;;;;;8.30;99.90;;;;;;5109939;28;20375;-73
2023/12/09 11:39:43;;;;;;;;;;;8.30;99.90;;;;;;5112334;28;19923;-74
2023/12/09 11:42:09;;;;;;;;;;;8.30;99.90;;;;;;5109433;28;19927;-73
2023/12/09 11:44:36;;;;;;;;;;;8.30;99.90;;;;;;5107930;28;19942;-73
2023/12/09 11:47:01;;;;;;;;;;;8.20;99.90;;;;;;5122826;27;20505;-73
2023/12/09 11:49:28;;;;;;;;;;;8.30;99.90;;;;;;5120777;27;19923;-73
2023/12/09 11:51:54;;;;;;;;;;;8.20;99.90;;;;;;5101020;27;19919;-73
2023/12/09 11:54:19;;;;;;;;;;;8.20;99.90;;;;;;5133328;27;20308;-73
2023/12/09 11:56:45;;;;;;;;;;;8.20;99.90;;;;;;5115090;27;20459;-73
2023/12/09 11:59:12;;;;;;;;;;;8.20;99.90;;;;;;5118956;27;19923;-73
2023/12/09 12:01:39;;;;;;;;;;;8.30;99.90;;;;;;5095430;27;19989;-73
2023/12/09 12:04:05;;;;;;;;;;;8.20;99.90;;;;;;5117498;27;19920;-73
2023/12/09 12:06:32;;;;;;;;;;;8.30;99.90;;;;;;5111766;28;19924;-73
2023/12/09 12:08:58;;;;;;;;;;;8.30;99.90;;;;;;5110352;27;20066;-73
2023/12/09 12:11:24;;;;;;;;;;;8.40;99.90;;;;;;5091012;28;19931;-73
2023/12/09 12:13:49;;;;;;;;;;;8.30;99.90;;;;;;5114643;27;19931;-73
2023/12/09 12:16:15;;;;;;;;;;;8.30;99.90;;;;;;5130742;27;19927;-73
2023/12/09 12:18:41;;;;;;;;;;;8.30;99.90;;;;;;5131101;27;19924;-74
2023/12/09 12:21:07;;;;;;;;;;;8.30;99.90;;;;;;5099043;28;20295;-73
2023/12/09 12:23:33;;;;;;;;;;;8.30;99.90;;;;;;5093954;28;19923;-73
2023/12/09 12:25:59;;;;;;;;;;;8.30;99.90;;;;;;5109543;27;20108;-73
2023/12/09 12:28:24;;;;;;;;;;;8.30;99.90;;;;;;5112530;27;19977;-74
2023/12/09 12:30:54;;;;;;;;;;;8.30;99.90;;;;;;5092069;28;20014;-73
2023/12/09 12:33:21;;;;;;;;;;;8.30;99.90;;;;;;5103328;28;19971;-73
2023/12/09 12:35:49;;;;;;;;;;;8.30;99.90;;;;;;5113193;27;19919;-73
2023/12/09 12:38:14;;;;;;;;;;;8.30;99.90;;;;;;5122765;27;20007;-73
2023/12/09 12:40:40;;;;;;;;;;;8.30;99.90;;;;;;5098856;27;20034;-73
2023/12/09 12:43:06;;;;;;;;;;;8.30;99.90;;;;;;5093812;27;19936;-74
2023/12/09 12:45:32;;;;;;;;;;;8.30;99.90;;;;;;5112289;27;19927;-73
2023/12/09 12:47:58;;;;;;;;;;;8.30;99.90;;;;;;5121447;27;20357;-73
2023/12/09 12:50:24;;;;;;;;;;;8.30;99.90;;;;;;5130314;27;19932;-73
2023/12/09 12:52:50;;;;;;;;;;;8.30;99.90;;;;;;5124960;27;19924;-74
2023/12/09 12:55:16;;;;;;;;;;;8.30;99.90;;;;;;5105530;28;19968;-74
2023/12/09 12:57:43;;;;;;;;;;;8.30;99.90;;;;;;5091478;28;20307;-73
2023/12/09 13:00:11;;;;;;;;;;;8.30;99.90;;;;;;5128240;27;19927;-73
2023/12/09 13:02:37;;;;;;;;;;;8.30;99.90;;;;;;5111935;27;20030;-74
2023/12/09 13:05:03;;;;;;;;;;;8.30;99.90;;;;;;5111174;28;20437;-73
2023/12/09 13:07:29;;;;;;;;;;;8.30;99.90;;;;;;5091472;28;19923;-73
2023/12/09 13:09:54;;;;;;;;;;;8.30;99.90;;;;;;5091198;28;19946;-73
2023/12/09 13:12:20;;;;;;;;;;;8.30;99.90;;;;;;5089507;28;19980;-73
2023/12/09 13:14:45;;;;;;;;;;;8.30;99.90;;;;;;5109694;27;19946;-73
2023/12/09 13:17:11;;;;;;;;;;;8.30;99.90;;;;;;5090005;28;19930;-72
2023/12/09 13:19:36;;;;;;;;;;;8.30;99.90;;;;;;5089337;28;19931;-72
2023/12/09 13:22:03;;;;;;;;;;;8.30;99.90;;;;;;5086849;28;19935;-72
2023/12/09 13:24:29;;;;;;;;;;;8.20;99.90;;;;;;5090646;28;19924;-72
2023/12/09 13:26:54;;;;;;;;;;;8.20;99.90;;;;;;5091000;28;19923;-72
2023/12/09 13:29:20;;;;;;;;;;;8.20;99.90;;;;;;5102572;28;19931;-72
2023/12/09 13:31:45;;;;;;;;;;;8.20;99.90;;;;;;5088187;28;19931;-71
2023/12/09 13:34:11;;;;;;;;;;;8.20;99.90;;;;;;5100369;28;20370;-72
2023/12/09 13:36:38;;;;;;;;;;;8.20;99.90;;;;;;5101050;28;19924;-72
2023/12/09 13:39:05;;;;;;;;;;;8.20;99.90;;;;;;5100029;28;19982;-72
2023/12/09 13:41:31;;;;;;;;;;;8.20;99.90;;;;;;5087443;28;19924;-72
2023/12/09 13:43:57;;;;;;;;;;;8.10;99.90;;;;;;5088263;28;19943;-72
2023/12/09 13:46:23;;;;;;;;;;;8.10;99.90;;;;;;5100011;28;20332;-73
2023/12/09 13:48:48;;;;;;;;;;;8.10;99.90;;;;;;5096724;28;20397;-73
2023/12/09 13:51:14;;;;;;;;;;;8.10;99.90;;;;;;5085693;28;19920;-71
2023/12/09 13:53:39;;;;;;;;;;;8.10;99.90;;;;;;5108170;28;20014;-72
2023/12/09 13:56:05;;;;;;;;;;;8.00;99.90;;;;;;5097162;28;19931;-71
2023/12/09 13:58:32;;;;;;;;;;;8.00;99.90;;;;;;5095153;28;19931;-72
2023/12/09 14:00:57;;;;;;;;;;;8.00;99.90;;;;;;5096819;28;20252;-74
2023/12/09 14:03:26;;;;;;;;;;;8.00;99.90;;;;;;5089989;28;19928;-73
2023/12/09 14:05:52;;;;;;;;;;;8.00;99.90;;;;;;5084884;28;20027;-72
2023/12/09 14:08:17;;;;;;;;;;;8.00;99.90;;;;;;5089816;28;21318;-75
2023/12/09 14:10:44;;;;;;;;;;;7.90;99.90;;;;;;5096424;28;19924;-74
2023/12/09 14:13:09;;;;;;;;;;;7.90;99.90;;;;;;5099197;28;19934;-73
2023/12/09 14:15:36;;;;;;;;;;;7.90;99.90;;;;;;5104940;28;20442;-74
2023/12/09 14:18:04;;;;;;;;;;;7.90;99.90;;;;;;5105688;28;20298;-73
2023/12/09 14:20:31;;;;;;;;;;;7.80;99.90;;;;;;5121515;28;19923;-74
2023/12/09 14:22:57;;;;;;;;;;;7.80;99.90;;;;;;5115719;28;19971;-75